Time;durP1;ratioP1;P1;durP2;ratioP2;P2;SDS_P1;SDS_P2;PMS_P1;PMS_P2;Temp;Humidity;BMP_temperature;BMP_pressure;BME280_temperature;BME280_humidity;BME280_pressure;Samples;Min_cycle;Max_cycle;Signal;HPM_P1;HPM_P2
2023/10/07 00:02:49;;;;;;;23.45;3.53;;;;;;;;;;5053400;28;20074;-67
2023/10/07 00:05:16;;;;;;;26.27;4.78;;;;;;;;;;5077367;28;20028;-67
2023/10/07 00:07:44;;;;;;;17.70;4.30;;;;;;;;;;5073451;28;20429;-67
2023/10/07 00:10:14;;;;;;;18.75;4.25;;;;;;;;;;5078109;28;20483;-67
2023/10/07 00:12:40;;;;;;;20.08;3.55;;;;;;;;;;5073462;28;20020;-67
2023/10/07 00:15:11;;;;;;;16.42;3.45;;;;;;;;;;5073383;28;20493;-67
2023/10/07 00:17:42;;;;;;;17.98;3.83;;;;;;;;;;5057311;28;20186;-67
2023/10/07 00:20:11;;;;;;;20.05;4.88;;;;;;;;;;5072761;28;20031;-67
2023/10/07 00:22:41;;;;;;;22.52;4.95;;;;;;;;;;5072555;28;20505;-67
2023/10/07 00:25:15;;;;;;;18.75;4.22;;;;;;;;;;5075773;28;20109;-67
2023/10/07 00:27:40;;;;;;;19.92;5.00;;;;;;;;;;5073123;28;20056;-67
2023/10/07 00:30:16;;;;;;;31.90;4.78;;;;;;;;;;5073232;28;20074;-67
2023/10/07 00:32:45;;;;;;;39.20;4.32;;;;;;;;;;5072536;28;20084;-67
2023/10/07 00:35:11;;;;;;;24.25;4.35;;;;;;;;;;5081854;28;20047;-67
2023/10/07 00:37:43;;;;;;;20.08;4.10;;;;;;;;;;5092684;28;20039;-67
2023/10/07 00:42:54;;;;;;;19.73;3.90;;;;;;;;;;5093122;28;20065;-67
2023/10/07 00:45:20;;;;;;;17.50;3.60;;;;;;;;;;5093028;28;20020;-67
2023/10/07 00:47:49;;;;;;;23.95;4.45;;;;;;;;;;5092547;28;20105;-67
2023/10/07 00:50:15;;;;;;;18.38;3.10;;;;;;;;;;5064464;28;20398;-67
2023/10/07 00:52:46;;;;;;;20.85;3.85;;;;;;;;;;5072450;28;20482;-67
2023/10/07 00:55:18;;;;;;;23.52;5.18;;;;;;;;;;5072842;28;20131;-67
2023/10/07 00:58:03;;;;;;;23.02;5.20;;;;;;;;;;5072360;28;20024;-67
2023/10/07 01:03:06;;;;;;;12.77;3.13;;;;;;;;;;5072798;28;20031;-68
2023/10/07 01:05:33;;;;;;;27.88;4.05;;;;;;;;;;5072077;28;20574;-67
2023/10/07 01:07:59;;;;;;;20.80;4.72;;;;;;;;;;5072157;28;20029;-67
2023/10/07 01:10:26;;;;;;;17.02;3.78;;;;;;;;;;5072359;28;20031;-67
2023/10/07 01:12:55;;;;;;;18.98;4.32;;;;;;;;;;5072425;28;20082;-67
2023/10/07 01:15:23;;;;;;;18.02;4.40;;;;;;;;;;5068245;28;20147;-67
2023/10/07 01:18:06;;;;;;;18.30;3.33;;;;;;;;;;5035866;28;20078;-67
2023/10/07 01:20:35;;;;;;;22.70;3.90;;;;;;;;;;5053107;28;20083;-67
2023/10/07 01:23:04;;;;;;;19.13;5.03;;;;;;;;;;5052526;28;20037;-67
2023/10/07 01:25:44;;;;;;;23.27;5.70;;;;;;;;;;5034745;28;20021;-67
2023/10/07 01:28:14;;;;;;;20.50;3.67;;;;;;;;;;5035957;28;20033;-67
2023/10/07 01:30:43;;;;;;;17.23;3.22;;;;;;;;;;5052897;28;20032;-67
2023/10/07 01:33:24;;;;;;;32.58;4.90;;;;;;;;;;5035325;28;20028;-67
2023/10/07 01:36:16;;;;;;;22.85;3.95;;;;;;;;;;5053301;28;20382;-67
2023/10/07 01:38:44;;;;;;;18.30;3.20;;;;;;;;;;5052193;28;20437;-67
2023/10/07 01:41:19;;;;;;;20.02;4.45;;;;;;;;;;5034918;28;20482;-67
2023/10/07 01:44:00;;;;;;;12.35;4.38;;;;;;;;;;5036193;28;20441;-67
2023/10/07 01:46:27;;;;;;;20.52;4.07;;;;;;;;;;5052220;28;20078;-67
2023/10/07 01:49:01;;;;;;;15.23;3.22;;;;;;;;;;5051926;28;20021;-67
2023/10/07 01:51:27;;;;;;;16.08;4.38;;;;;;;;;;5055598;28;20024;-67
2023/10/07 01:53:56;;;;;;;19.50;3.65;;;;;;;;;;5056143;28;20059;-67
2023/10/07 01:56:26;;;;;;;24.48;4.25;;;;;;;;;;5055583;28;20013;-67
2023/10/07 01:58:52;;;;;;;25.20;3.95;;;;;;;;;;5056038;28;20028;-67
2023/10/07 02:01:20;;;;;;;19.60;3.90;;;;;;;;;;5056233;28;20024;-67
2023/10/07 02:03:46;;;;;;;21.50;3.20;;;;;;;;;;5056004;28;20025;-68
2023/10/07 02:06:11;;;;;;;23.88;4.35;;;;;;;;;;5055862;28;20098;-67
2023/10/07 02:08:37;;;;;;;16.67;3.03;;;;;;;;;;5055869;28;20531;-67
2023/10/07 02:11:05;;;;;;;22.30;3.97;;;;;;;;;;5055537;28;20479;-67
2023/10/07 02:13:31;;;;;;;18.80;4.03;;;;;;;;;;5055771;28;20027;-67
2023/10/07 02:15:56;;;;;;;16.25;2.72;;;;;;;;;;5055964;28;20021;-67
2023/10/07 02:18:28;;;;;;;22.02;3.38;;;;;;;;;;5055852;28;20078;-67
2023/10/07 02:21:06;;;;;;;24.65;4.70;;;;;;;;;;5055895;28;20063;-67
2023/10/07 02:23:37;;;;;;;10.82;2.50;;;;;;;;;;5083726;23;20508;-69
2023/10/07 02:26:07;;;;;;;18.98;3.28;;;;;;;;;;5058132;28;20548;-69
2023/10/07 02:28:34;;;;;;;14.10;2.30;;;;;;;;;;5075630;28;20452;-69
2023/10/07 02:31:08;;;;;;;13.48;2.97;;;;;;;;;;5057824;28;20078;-69
2023/10/07 02:33:41;;;;;;;15.50;3.83;;;;;;;;;;5057081;28;20385;-69
2023/10/07 02:36:12;;;;;;;15.43;3.30;;;;;;;;;;5076398;28;20020;-69
2023/10/07 02:38:41;;;;;;;12.38;4.03;;;;;;;;;;5075740;28;20032;-69
2023/10/07 02:41:17;;;;;;;18.80;2.70;;;;;;;;;;5076540;28;20508;-69
2023/10/07 02:43:43;;;;;;;13.35;3.53;;;;;;;;;;5075597;28;20036;-69
2023/10/07 02:46:22;;;;;;;11.50;3.45;;;;;;;;;;5055543;28;20024;-69
2023/10/07 02:48:47;;;;;;;18.02;3.42;;;;;;;;;;5088224;28;20016;-69
2023/10/07 02:51:13;;;;;;;18.65;3.58;;;;;;;;;;5072922;28;20108;-69
2023/10/07 02:53:40;;;;;;;15.40;3.28;;;;;;;;;;5075496;28;20024;-69
2023/10/07 02:56:16;;;;;;;13.07;2.78;;;;;;;;;;5074670;28;20029;-69
2023/10/07 02:58:58;;;;;;;17.10;2.58;;;;;;;;;;5073129;28;20535;-69
2023/10/07 03:01:25;;;;;;;17.42;2.72;;;;;;;;;;5083279;28;20032;-69
2023/10/07 03:03:50;;;;;;;22.02;4.43;;;;;;;;;;5089643;28;20039;-69
2023/10/07 03:06:19;;;;;;;14.02;3.22;;;;;;;;;;5082420;28;20032;-69
2023/10/07 03:08:59;;;;;;;14.27;3.08;;;;;;;;;;5077289;28;20020;-69
2023/10/07 03:11:25;;;;;;;18.83;2.42;;;;;;;;;;5094812;28;20028;-69
2023/10/07 03:13:56;;;;;;;13.15;3.38;;;;;;;;;;5077079;28;20024;-69
2023/10/07 03:19:20;;;;;;;10.00;3.13;;;;;;;;;;5076996;28;20101;-69
2023/10/07 03:24:13;;;;;;;22.85;3.92;;;;;;;;;;5078228;28;20058;-69
2023/10/07 03:26:44;;;;;;;14.82;3.33;;;;;;;;;;5077888;28;20035;-69
2023/10/07 03:29:10;;;;;;;16.77;2.30;;;;;;;;;;5094669;28;20367;-69
2023/10/07 03:31:59;;;;;;;18.40;3.70;;;;;;;;;;5094112;28;20499;-69
2023/10/07 03:34:21;;;;;;;21.00;3.28;;;;;;;;;;5079000;28;20032;-69
2023/10/07 03:37:14;;;;;;;15.18;3.55;;;;;;;;;;5094768;28;20027;-69
2023/10/07 03:42:18;;;;;;;18.23;4.40;;;;;;;;;;5079193;28;20105;-69
2023/10/07 03:44:43;;;;;;;27.40;3.60;;;;;;;;;;5075678;28;20051;-69
2023/10/07 03:47:10;;;;;;;17.92;4.28;;;;;;;;;;5094297;28;20103;-69
2023/10/07 03:49:39;;;;;;;13.77;3.40;;;;;;;;;;5076177;28;20085;-69
2023/10/07 03:52:08;;;;;;;13.40;2.80;;;;;;;;;;5094127;28;20028;-69
2023/10/07 03:54:40;;;;;;;17.45;3.55;;;;;;;;;;5076060;28;20034;-69
2023/10/07 03:57:07;;;;;;;19.10;5.38;;;;;;;;;;5093595;28;20039;-69
2023/10/07 03:59:34;;;;;;;15.13;3.83;;;;;;;;;;5094464;28;20093;-69
2023/10/07 04:02:12;;;;;;;17.88;4.25;;;;;;;;;;5076224;28;20020;-69
2023/10/07 04:04:41;;;;;;;17.95;3.00;;;;;;;;;;5077848;28;20381;-69
2023/10/07 04:07:07;;;;;;;15.70;3.47;;;;;;;;;;5093517;28;20032;-69
2023/10/07 04:09:33;;;;;;;17.15;2.90;;;;;;;;;;5094199;28;20027;-69
2023/10/07 04:11:59;;;;;;;19.85;3.65;;;;;;;;;;5094180;28;20520;-69
2023/10/07 04:14:27;;;;;;;20.45;3.60;;;;;;;;;;5075587;28;20074;-69
2023/10/07 04:17:01;;;;;;;17.55;3.47;;;;;;;;;;5077094;28;20077;-70
2023/10/07 04:21:55;;;;;;;19.00;3.95;;;;;;;;;;5093581;28;20102;-69
2023/10/07 04:24:23;;;;;;;21.75;5.88;;;;;;;;;;5094154;28;20074;-69
2023/10/07 04:26:54;;;;;;;30.58;4.30;;;;;;;;;;5094347;28;20421;-69
2023/10/07 04:29:21;;;;;;;12.75;2.83;;;;;;;;;;5094331;28;20024;-69
2023/10/07 04:31:47;;;;;;;20.75;3.78;;;;;;;;;;5093951;28;20028;-69
2023/10/07 04:34:16;;;;;;;15.35;3.53;;;;;;;;;;5093374;28;20489;-69
2023/10/07 04:39:31;;;;;;;14.88;3.50;;;;;;;;;;5093916;28;20031;-69
2023/10/07 04:41:57;;;;;;;14.93;3.85;;;;;;;;;;5076153;28;20069;-69
2023/10/07 04:49:57;;;;;;;13.10;3.15;;;;;;;;;;5093495;28;20065;-69
2023/10/07 04:52:28;;;;;;;28.02;5.03;;;;;;;;;;5075188;28;20028;-69
2023/10/07 04:54:53;;;;;;;;;;;;;;;;;;5093678;28;20497;-69
2023/10/07 04:57:39;;;;;;;22.35;3.55;;;;;;;;;;5093463;28;19908;-69
2023/10/07 05:00:08;;;;;;;13.57;2.75;;;;;;;;;;5077559;28;20031;-69
2023/10/07 05:02:34;;;;;;;17.15;3.22;;;;;;;;;;5075052;28;20016;-70
2023/10/07 05:05:00;;;;;;;16.25;3.25;;;;;;;;;;5075981;28;20077;-69
2023/10/07 05:07:26;;;;;;;24.17;3.53;;;;;;;;;;5092968;28;20028;-69
2023/10/07 05:09:52;;;;;;;13.77;3.80;;;;;;;;;;5075364;28;20024;-68
2023/10/07 05:12:19;;;;;;;14.50;4.35;;;;;;;;;;5093328;28;20031;-69
2023/10/07 05:14:45;;;;;;;14.35;2.60;;;;;;;;;;5075771;28;20112;-69
2023/10/07 05:17:11;;;;;;;19.05;3.35;;;;;;;;;;5092544;28;20485;-69
2023/10/07 05:19:37;;;;;;;18.48;5.22;;;;;;;;;;5093199;28;20020;-69
2023/10/07 05:22:14;;;;;;;18.25;3.58;;;;;;;;;;5092766;28;20081;-69
2023/10/07 05:24:41;;;;;;;21.77;3.72;;;;;;;;;;5095100;28;20019;-69
2023/10/07 05:27:06;;;;;;;16.88;2.50;;;;;;;;;;5078729;28;20191;-69
2023/10/07 05:29:32;;;;;;;15.50;3.83;;;;;;;;;;5079047;28;20023;-69
2023/10/07 05:31:57;;;;;;;20.33;3.63;;;;;;;;;;5096995;28;20067;-69
2023/10/07 05:34:33;;;;;;;24.20;4.00;;;;;;;;;;5078958;28;20026;-69
2023/10/07 05:37:03;;;;;;;15.32;3.05;;;;;;;;;;5097303;28;20099;-69
2023/10/07 05:39:28;;;;;;;23.30;4.45;;;;;;;;;;5097009;28;20051;-69
2023/10/07 05:41:53;;;;;;;13.38;3.53;;;;;;;;;;5083906;23;20480;-69
2023/10/07 05:44:20;;;;;;;18.45;4.55;;;;;;;;;;5076917;28;20124;-69
2023/10/07 05:46:45;;;;;;;12.50;4.28;;;;;;;;;;5058780;28;20482;-68
2023/10/07 05:49:10;;;;;;;22.02;6.28;;;;;;;;;;5058550;28;20059;-69
2023/10/07 05:51:37;;;;;;;15.85;4.05;;;;;;;;;;5076648;28;20028;-69
2023/10/07 05:54:03;;;;;;;14.38;6.53;;;;;;;;;;5075859;28;20082;-69
2023/10/07 05:56:29;;;;;;;20.75;7.45;;;;;;;;;;5076499;28;20021;-69
2023/10/07 05:58:54;;;;;;;24.35;4.82;;;;;;;;;;5058326;28;20036;-69
2023/10/07 06:01:20;;;;;;;17.15;5.53;;;;;;;;;;5058204;28;20028;-69
2023/10/07 06:03:46;;;;;;;10.93;5.90;;;;;;;;;;5057545;28;20496;-69
2023/10/07 06:06:13;;;;;;;17.55;4.55;;;;;;;;;;5058504;28;20027;-69
2023/10/07 06:08:40;;;;;;;20.90;3.40;;;;;;;;;;5058055;28;20025;-69
2023/10/07 06:11:10;;;;;;;25.02;3.60;;;;;;;;;;5041069;28;20398;-69
2023/10/07 06:13:37;;;;;;;24.38;5.80;;;;;;;;;;5058595;28;20029;-69
2023/10/07 06:16:04;;;;;;;32.53;12.52;;;;;;;;;;5055336;28;20487;-69
2023/10/07 06:18:33;;;;;;;57.92;23.67;;;;;;;;;;5058870;28;20054;-69
2023/10/07 06:21:14;;;;;;;24.83;8.95;;;;;;;;;;5051923;28;20016;-69
2023/10/07 06:23:41;;;;;;;25.83;4.00;;;;;;;;;;5068148;28;20048;-69
2023/10/07 06:26:09;;;;;;;17.90;4.47;;;;;;;;;;5075028;28;20156;-69
2023/10/07 06:28:35;;;;;;;16.70;4.80;;;;;;;;;;5075518;28;20036;-70
2023/10/07 06:31:10;;;;;;;16.80;4.43;;;;;;;;;;5052341;28;20324;-69
2023/10/07 06:34:03;;;;;;;10.18;4.30;;;;;;;;;;5057197;28;20021;-69
2023/10/07 06:36:30;;;;;;;16.00;4.40;;;;;;;;;;5087792;28;20031;-69
2023/10/07 06:38:58;;;;;;;31.42;9.70;;;;;;;;;;5074877;28;20044;-69
2023/10/07 06:41:27;;;;;;;24.52;7.90;;;;;;;;;;5055549;28;20052;-69
2023/10/07 06:43:53;;;;;;;21.58;6.10;;;;;;;;;;5054208;28;20475;-69
2023/10/07 06:46:22;;;;;;;14.18;4.60;;;;;;;;;;5056992;28;20078;-69
2023/10/07 06:48:51;;;;;;;14.05;3.38;;;;;;;;;;5045327;28;20501;-69
2023/10/07 06:51:16;;;;;;;12.43;3.72;;;;;;;;;;5073383;28;20050;-69
2023/10/07 06:53:45;;;;;;;16.42;3.10;;;;;;;;;;5057181;28;20562;-69
2023/10/07 06:56:20;;;;;;;12.02;3.63;;;;;;;;;;5057879;28;20120;-69
2023/10/07 06:58:53;;;;;;;14.23;2.90;;;;;;;;;;5057826;28;20036;-69
2023/10/07 07:04:10;;;;;;;12.70;2.78;;;;;;;;;;5075152;28;20040;-69
2023/10/07 07:06:42;;;;;;;8.52;2.60;;;;;;;;;;5057504;28;20021;-69
2023/10/07 07:09:41;;;;;;;9.90;2.85;;;;;;;;;;5075125;28;20036;-70
2023/10/07 07:11:56;;;;;;;7.07;2.03;;;;;;;;;;5059070;28;20089;-69
2023/10/07 07:14:28;;;;;;;9.80;2.30;;;;;;;;;;5055819;28;20047;-69
2023/10/07 07:16:53;;;;;;;15.10;4.45;;;;;;;;;;5038228;28;20078;-70
2023/10/07 07:19:22;;;;;;;8.50;2.38;;;;;;;;;;5036654;28;20494;-69
2023/10/07 07:21:48;;;;;;;9.70;2.65;;;;;;;;;;5064799;28;20024;-70
2023/10/07 07:24:14;;;;;;;7.80;2.40;;;;;;;;;;5064500;28;20036;-70
2023/10/07 07:26:40;;;;;;;9.38;3.45;;;;;;;;;;5036661;28;20021;-70
2023/10/07 07:29:05;;;;;;;10.15;4.13;;;;;;;;;;5053862;28;20428;-70
2023/10/07 07:31:34;;;;;;;55.58;23.00;;;;;;;;;;5054311;28;20498;-70
2023/10/07 07:34:19;;;;;;;30.70;15.05;;;;;;;;;;5054360;28;20075;-70
2023/10/07 07:36:48;;;;;;;8.57;4.88;;;;;;;;;;5055534;28;20023;-71
2023/10/07 07:39:18;;;;;;;5.78;4.20;;;;;;;;;;5074670;28;20611;-71
2023/10/07 07:41:55;;;;;;;14.90;6.13;;;;;;;;;;5044461;28;20029;-70
2023/10/07 07:44:33;;;;;;;10.52;5.68;;;;;;;;;;5052347;28;20047;-72
2023/10/07 07:47:03;;;;;;;8.40;4.22;;;;;;;;;;5059151;28;20020;-71
2023/10/07 07:49:32;;;;;;;21.50;6.03;;;;;;;;;;5056068;28;20051;-70
2023/10/07 07:51:58;;;;;;;8.52;3.90;;;;;;;;;;5074603;28;20017;-70
2023/10/07 07:54:24;;;;;;;11.85;3.92;;;;;;;;;;5074198;28;20020;-70
2023/10/07 07:56:50;;;;;;;13.52;3.95;;;;;;;;;;5054053;28;20020;-68
2023/10/07 07:59:15;;;;;;;13.95;6.68;;;;;;;;;;5069915;28;20021;-69
2023/10/07 08:01:44;;;;;;;17.08;4.93;;;;;;;;;;5044029;28;20540;-69
2023/10/07 08:04:16;;;;;;;8.48;3.30;;;;;;;;;;5043147;28;20028;-69
2023/10/07 08:06:42;;;;;;;15.25;4.25;;;;;;;;;;5042249;28;20024;-69
2023/10/07 08:09:09;;;;;;;17.10;4.32;;;;;;;;;;5056148;28;20028;-69
2023/10/07 08:11:35;;;;;;;11.20;2.70;;;;;;;;;;5074037;28;20025;-69
2023/10/07 08:14:09;;;;;;;13.27;3.40;;;;;;;;;;5055641;28;20111;-69
2023/10/07 08:16:44;;;;;;;15.45;3.78;;;;;;;;;;5058224;28;20378;-69
2023/10/07 08:19:20;;;;;;;10.02;3.55;;;;;;;;;;5092317;28;20035;-68
2023/10/07 08:21:46;;;;;;;14.40;3.35;;;;;;;;;;5057750;28;20020;-69
2023/10/07 08:24:13;;;;;;;14.07;3.55;;;;;;;;;;5093959;28;20042;-69
2023/10/07 08:26:48;;;;;;;10.90;3.10;;;;;;;;;;5077825;28;20043;-69
2023/10/07 08:29:30;;;;;;;13.15;2.70;;;;;;;;;;5073352;28;20118;-69
2023/10/07 08:31:57;;;;;;;17.70;3.83;;;;;;;;;;5038016;28;20402;-69
2023/10/07 08:34:34;;;;;;;18.88;3.55;;;;;;;;;;5071274;28;20078;-70
2023/10/07 08:37:03;;;;;;;17.02;5.65;;;;;;;;;;5036847;28;20475;-69
2023/10/07 08:39:29;;;;;;;17.58;3.95;;;;;;;;;;5024763;28;20090;-69
2023/10/07 08:41:58;;;;;;;14.40;3.22;;;;;;;;;;5052997;28;20025;-69
2023/10/07 08:44:31;;;;;;;12.85;4.75;;;;;;;;;;5044072;28;20028;-69
2023/10/07 08:47:04;;;;;;;17.00;3.40;;;;;;;;;;5055816;28;20096;-69
2023/10/07 08:49:32;;;;;;;13.77;4.07;;;;;;;;;;5047139;28;20112;-69
2023/10/07 08:51:59;;;;;;;16.83;3.00;;;;;;;;;;5035929;28;20025;-69
2023/10/07 08:54:31;;;;;;;10.55;2.50;;;;;;;;;;5039793;28;20017;-69
2023/10/07 08:57:46;;;;;;;10.68;3.00;;;;;;;;;;5056315;28;20059;-69
2023/10/07 08:59:56;;;;;;;14.48;3.92;;;;;;;;;;5054685;28;20043;-69
2023/10/07 09:02:27;;;;;;;10.73;5.05;;;;;;;;;;5063458;28;20125;-69
2023/10/07 09:04:57;;;;;;;;;;;;;;;;;;5065357;28;20027;-69
2023/10/07 09:07:23;;;;;;;20.55;4.75;;;;;;;;;;5055420;28;19916;-69
2023/10/07 09:09:49;;;;;;;28.80;5.45;;;;;;;;;;5054735;28;20028;-69
2023/10/07 09:12:30;;;;;;;27.38;5.50;;;;;;;;;;5073180;28;20032;-69
2023/10/07 09:14:57;;;;;;;20.02;3.78;;;;;;;;;;5057621;28;20042;-69
2023/10/07 09:17:26;;;;;;;17.58;3.33;;;;;;;;;;5054888;28;20028;-69
2023/10/07 09:19:53;;;;;;;14.40;3.88;;;;;;;;;;5055557;28;20028;-69
2023/10/07 09:22:27;;;;;;;14.68;3.72;;;;;;;;;;5054490;28;20036;-69
2023/10/07 09:24:54;;;;;;;16.23;3.78;;;;;;;;;;5073209;28;20029;-69
2023/10/07 09:27:36;;;;;;;17.80;3.97;;;;;;;;;;5055082;28;20058;-68
2023/10/07 09:30:35;;;;;;;13.60;2.80;;;;;;;;;;5072609;28;20052;-68
2023/10/07 09:32:55;;;;;;;17.60;3.65;;;;;;;;;;5072307;28;20107;-68
2023/10/07 09:35:25;;;;;;;13.93;3.67;;;;;;;;;;5055022;28;20024;-69
2023/10/07 09:37:54;;;;;;;11.35;3.38;;;;;;;;;;5054945;28;20021;-68
2023/10/07 09:43:15;;;;;;;16.10;3.80;;;;;;;;;;5041426;28;20509;-69
2023/10/07 09:45:41;;;;;;;20.95;4.65;;;;;;;;;;5055771;28;20021;-69
2023/10/07 09:48:08;;;;;;;7.15;3.05;;;;;;;;;;5054942;28;20440;-69
2023/10/07 09:50:35;;;;;;;17.95;4.45;;;;;;;;;;5072493;28;20020;-69
2023/10/07 09:53:20;;;;;;;10.10;5.25;;;;;;;;;;5072657;28;20036;-69
2023/10/07 09:56:21;;;;;;;21.00;4.60;;;;;;;;;;5054228;28;20074;-69
2023/10/07 09:59:13;;;;;;;8.95;4.15;;;;;;;;;;5054858;28;20032;-69
2023/10/07 10:01:58;;;;;;;10.88;3.47;;;;;;;;;;5073123;28;20021;-69
2023/10/07 10:04:43;;;;;;;11.13;2.85;;;;;;;;;;5072862;28;20098;-69
2023/10/07 10:07:16;;;;;;;17.58;5.88;;;;;;;;;;5054600;28;20017;-69
2023/10/07 10:12:29;;;;;;;17.30;4.90;;;;;;;;;;5075344;28;20031;-69
2023/10/07 10:15:50;;;;;;;24.05;7.25;;;;;;;;;;5076348;28;20020;-69
2023/10/07 10:17:48;;;;;;;9.32;3.35;;;;;;;;;;5075841;28;20035;-70
2023/10/07 10:20:18;;;;;;;15.60;4.10;;;;;;;;;;5059367;28;20055;-69
2023/10/07 10:23:00;;;;;;;12.77;3.47;;;;;;;;;;5058614;28;20482;-69
2023/10/07 10:25:39;;;;;;;16.42;5.00;;;;;;;;;;5058105;28;20024;-68
2023/10/07 10:28:07;;;;;;;31.70;6.55;;;;;;;;;;5060337;28;20031;-69
2023/10/07 10:30:44;;;;;;;25.23;4.78;;;;;;;;;;5058564;28;20021;-69
2023/10/07 10:33:19;;;;;;;10.45;3.70;;;;;;;;;;5058177;28;20111;-69
2023/10/07 10:35:48;;;;;;;26.63;5.20;;;;;;;;;;5057843;28;20021;-69
2023/10/07 10:38:14;;;;;;;18.23;5.13;;;;;;;;;;5057571;28;20490;-69
2023/10/07 10:40:39;;;;;;;14.90;4.53;;;;;;;;;;5075479;28;20028;-69
2023/10/07 10:43:05;;;;;;;20.05;5.55;;;;;;;;;;5075216;28;20032;-69
2023/10/07 10:45:31;;;;;;;16.20;5.65;;;;;;;;;;5058170;28;20017;-69
2023/10/07 10:48:01;;;;;;;10.13;3.58;;;;;;;;;;5053385;28;20079;-69
2023/10/07 10:50:28;;;;;;;25.85;8.93;;;;;;;;;;5077996;28;20017;-69
2023/10/07 10:52:55;;;;;;;17.50;5.38;;;;;;;;;;5056871;28;20020;-68
2023/10/07 10:55:24;;;;;;;14.27;3.53;;;;;;;;;;5056117;28;20016;-69
2023/10/07 10:57:52;;;;;;;15.13;5.15;;;;;;;;;;5063486;28;20021;-69
2023/10/07 11:00:22;;;;;;;16.80;3.53;;;;;;;;;;5055113;28;20029;-69
2023/10/07 11:02:52;;;;;;;15.55;3.40;;;;;;;;;;5037471;28;20013;-68
2023/10/07 11:05:18;;;;;;;15.90;4.78;;;;;;;;;;5036821;28;20052;-69
2023/10/07 11:07:46;;;;;;;21.45;4.70;;;;;;;;;;5055055;28;20510;-69
2023/10/07 11:10:12;;;;;;;22.25;4.90;;;;;;;;;;5037597;28;20021;-68
2023/10/07 11:12:37;;;;;;;19.90;4.47;;;;;;;;;;5061035;28;20394;-69
2023/10/07 11:15:14;;;;;;;26.27;5.95;;;;;;;;;;5056156;28;20052;-69
2023/10/07 11:17:41;;;;;;;18.33;4.68;;;;;;;;;;5058161;28;20039;-69
2023/10/07 11:20:09;;;;;;;16.55;5.43;;;;;;;;;;5040514;28;20021;-69
2023/10/07 11:22:42;;;;;;;12.15;4.47;;;;;;;;;;5056517;28;20024;-69
2023/10/07 11:25:14;;;;;;;26.15;4.75;;;;;;;;;;5056758;28;20028;-72
2023/10/07 11:27:42;;;;;;;10.32;3.53;;;;;;;;;;5057017;28;20048;-70
2023/10/07 11:30:11;;;;;;;20.02;4.07;;;;;;;;;;5057248;28;20028;-70
2023/10/07 11:32:39;;;;;;;17.50;3.35;;;;;;;;;;5057062;28;20501;-71
2023/10/07 11:35:15;;;;;;;14.20;2.90;;;;;;;;;;5057059;28;20024;-71
2023/10/07 11:37:57;;;;;;;16.73;3.30;;;;;;;;;;5056765;28;20055;-70
2023/10/07 11:40:24;;;;;;;13.20;2.50;;;;;;;;;;5057378;28;20032;-70
2023/10/07 11:42:51;;;;;;;12.23;2.47;;;;;;;;;;5056125;28;20108;-70
2023/10/07 11:45:17;;;;;;;17.08;4.13;;;;;;;;;;5056577;28;20031;-70
2023/10/07 11:47:45;;;;;;;22.00;3.53;;;;;;;;;;5056446;28;20028;-71
2023/10/07 11:50:12;;;;;;;12.27;3.38;;;;;;;;;;5070642;28;20021;-70
2023/10/07 11:52:40;;;;;;;15.50;3.03;;;;;;;;;;5073420;28;20058;-70
2023/10/07 11:55:07;;;;;;;12.68;3.08;;;;;;;;;;5056178;28;20028;-70
2023/10/07 11:57:34;;;;;;;10.90;3.30;;;;;;;;;;5074361;28;20031;-70
2023/10/07 11:59:59;;;;;;;9.38;3.53;;;;;;;;;;5056198;28;20016;-70
2023/10/07 12:02:24;;;;;;;18.02;3.42;;;;;;;;;;5055678;28;20023;-70
2023/10/07 12:04:51;;;;;;;19.08;4.47;;;;;;;;;;5073609;28;20025;-70
2023/10/07 12:07:17;;;;;;;15.52;3.38;;;;;;;;;;5073713;28;20032;-70
2023/10/07 12:09:46;;;;;;;21.98;3.75;;;;;;;;;;5055883;28;20428;-70
2023/10/07 12:12:14;;;;;;;13.93;4.25;;;;;;;;;;5073220;28;20044;-70
2023/10/07 12:14:39;;;;;;;11.38;2.85;;;;;;;;;;5043978;28;20520;-70
2023/10/07 12:17:04;;;;;;;16.35;3.67;;;;;;;;;;5058473;28;20016;-70
2023/10/07 12:19:31;;;;;;;14.27;3.88;;;;;;;;;;5053019;28;20101;-70
2023/10/07 12:21:57;;;;;;;12.45;4.05;;;;;;;;;;5035634;28;20406;-70
2023/10/07 12:24:22;;;;;;;15.95;5.13;;;;;;;;;;5067789;28;20024;-70
2023/10/07 12:26:50;;;;;;;17.98;3.33;;;;;;;;;;5072833;28;20036;-70
2023/10/07 12:29:17;;;;;;;9.48;2.85;;;;;;;;;;5055654;28;20063;-70
2023/10/07 12:31:44;;;;;;;9.40;2.38;;;;;;;;;;5055966;28;20398;-70
2023/10/07 12:34:10;;;;;;;10.48;2.88;;;;;;;;;;5071924;28;20027;-70
2023/10/07 12:36:36;;;;;;;11.52;2.75;;;;;;;;;;5056277;28;20024;-70
2023/10/07 12:39:01;;;;;;;11.43;2.38;;;;;;;;;;5058525;28;20546;-70
2023/10/07 12:41:27;;;;;;;8.93;3.08;;;;;;;;;;5075031;28;20031;-69
2023/10/07 12:43:53;;;;;;;14.63;3.15;;;;;;;;;;5055694;28;20112;-69
2023/10/07 12:46:20;;;;;;;8.00;3.03;;;;;;;;;;5072756;28;20032;-69
2023/10/07 12:48:46;;;;;;;11.98;3.50;;;;;;;;;;5059945;28;20023;-69
2023/10/07 12:51:12;;;;;;;16.70;2.95;;;;;;;;;;5056959;28;20070;-69
2023/10/07 12:53:38;;;;;;;10.80;3.20;;;;;;;;;;5055013;28;20021;-69
2023/10/07 12:56:19;;;;;;;11.23;2.80;;;;;;;;;;5073108;28;20016;-69
2023/10/07 12:58:46;;;;;;;15.15;3.38;;;;;;;;;;5045458;28;20505;-69
2023/10/07 13:01:12;;;;;;;12.20;2.97;;;;;;;;;;5035732;28;20536;-68
2023/10/07 13:03:43;;;;;;;11.43;3.05;;;;;;;;;;5038502;28;20028;-69
2023/10/07 13:06:10;;;;;;;;;;;;;;;;;;5047608;28;20028;-69
2023/10/07 13:08:38;;;;;;;11.98;2.80;;;;;;;;;;5071631;28;19908;-69
2023/10/07 13:11:11;;;;;;;10.95;3.63;;;;;;;;;;5073021;28;20035;-69
2023/10/07 13:13:40;;;;;;;15.18;2.42;;;;;;;;;;5055931;28;20024;-69
2023/10/07 13:16:11;;;;;;;8.48;3.88;;;;;;;;;;5072388;28;20134;-69
2023/10/07 13:18:41;;;;;;;8.35;2.58;;;;;;;;;;5054978;28;20036;-69
2023/10/07 13:21:19;;;;;;;7.32;2.38;;;;;;;;;;5055130;28;20487;-69
2023/10/07 13:23:47;;;;;;;10.60;2.83;;;;;;;;;;5072714;28;20031;-69
2023/10/07 13:26:14;;;;;;;12.02;4.13;;;;;;;;;;5072590;28;20031;-68
2023/10/07 13:28:40;;;;;;;10.93;3.50;;;;;;;;;;5072752;28;20120;-69
2023/10/07 13:31:08;;;;;;;7.72;2.70;;;;;;;;;;5055037;28;20078;-69
2023/10/07 13:33:36;;;;;;;8.98;2.63;;;;;;;;;;5054827;28;20020;-69
2023/10/07 13:36:02;;;;;;;10.02;2.72;;;;;;;;;;5072215;28;20378;-69
2023/10/07 13:38:27;;;;;;;10.13;2.95;;;;;;;;;;5073002;28;20024;-69
2023/10/07 13:40:52;;;;;;;11.63;2.30;;;;;;;;;;5072608;28;20467;-69
2023/10/07 13:43:18;;;;;;;9.60;2.50;;;;;;;;;;5083360;23;20048;-69
2023/10/07 13:45:43;;;;;;;9.27;2.67;;;;;;;;;;5092863;28;20028;-69
2023/10/07 13:48:10;;;;;;;13.77;4.13;;;;;;;;;;5096731;28;20460;-69
2023/10/07 13:50:39;;;;;;;9.68;2.65;;;;;;;;;;5096616;28;20024;-69
2023/10/07 13:55:44;;;;;;;12.90;3.25;;;;;;;;;;5096943;28;20021;-69
2023/10/07 13:58:15;;;;;;;16.17;3.25;;;;;;;;;;5095473;28;20028;-69
2023/10/07 14:00:45;;;;;;;9.80;2.97;;;;;;;;;;5096306;28;20099;-69
2023/10/07 14:03:22;;;;;;;11.30;3.03;;;;;;;;;;5095305;28;20019;-69
2023/10/07 14:05:49;;;;;;;19.17;3.30;;;;;;;;;;5095602;28;20034;-69
2023/10/07 14:08:19;;;;;;;5.63;2.67;;;;;;;;;;5096352;28;20444;-69
2023/10/07 14:10:47;;;;;;;9.32;2.45;;;;;;;;;;5095680;28;20389;-69
2023/10/07 14:13:13;;;;;;;14.63;3.17;;;;;;;;;;5096510;28;20023;-68
2023/10/07 14:15:38;;;;;;;12.40;2.78;;;;;;;;;;5095678;28;20023;-68
2023/10/07 14:18:05;;;;;;;13.75;4.22;;;;;;;;;;5096757;28;20028;-69
2023/10/07 14:20:31;;;;;;;16.58;3.88;;;;;;;;;;5096221;28;20023;-69
2023/10/07 14:22:56;;;;;;;9.60;2.92;;;;;;;;;;5094598;28;20035;-69
2023/10/07 14:25:24;;;;;;;7.57;2.97;;;;;;;;;;5095919;28;20028;-69
2023/10/07 14:27:50;;;;;;;12.82;2.35;;;;;;;;;;5085910;28;20386;-69
2023/10/07 14:30:17;;;;;;;24.85;5.95;;;;;;;;;;5075913;28;20016;-69
2023/10/07 14:32:42;;;;;;;10.63;2.38;;;;;;;;;;5075405;28;20020;-69
2023/10/07 14:35:11;;;;;;;8.60;2.80;;;;;;;;;;5095650;28;20077;-68
2023/10/07 14:37:38;;;;;;;9.93;2.95;;;;;;;;;;5095007;28;20024;-69
2023/10/07 14:40:05;;;;;;;10.10;3.15;;;;;;;;;;5094825;28;20024;-69
2023/10/07 14:42:31;;;;;;;13.32;3.30;;;;;;;;;;5094495;28;20024;-69
2023/10/07 14:44:57;;;;;;;14.57;3.13;;;;;;;;;;5095639;28;20019;-69
2023/10/07 14:47:24;;;;;;;11.27;2.80;;;;;;;;;;5094784;28;20046;-69
2023/10/07 14:49:50;;;;;;;11.70;2.75;;;;;;;;;;5093985;28;20020;-69
2023/10/07 14:52:16;;;;;;;13.32;3.78;;;;;;;;;;5094501;28;20035;-69
2023/10/07 14:54:41;;;;;;;10.77;2.50;;;;;;;;;;5095661;28;20024;-69
2023/10/07 14:57:07;;;;;;;13.82;2.63;;;;;;;;;;5094955;28;20106;-69
2023/10/07 14:59:33;;;;;;;11.48;2.00;;;;;;;;;;5115108;28;20367;-69
2023/10/07 15:02:02;;;;;;;11.70;3.15;;;;;;;;;;5092039;28;20024;-69
2023/10/07 15:04:28;;;;;;;11.38;3.22;;;;;;;;;;5092068;28;20050;-69
2023/10/07 15:06:54;;;;;;;8.73;2.45;;;;;;;;;;5094392;28;20019;-69
2023/10/07 15:09:22;;;;;;;8.95;2.35;;;;;;;;;;5094123;28;20092;-69
2023/10/07 15:11:49;;;;;;;8.30;2.88;;;;;;;;;;5094859;28;20039;-69
2023/10/07 15:14:15;;;;;;;13.68;2.85;;;;;;;;;;5094120;28;20023;-69
2023/10/07 15:16:42;;;;;;;7.82;2.53;;;;;;;;;;5095364;28;20024;-69
2023/10/07 15:19:08;;;;;;;16.58;3.35;;;;;;;;;;5094020;28;20024;-68
2023/10/07 15:21:35;;;;;;;10.95;3.08;;;;;;;;;;5093701;28;20027;-72
2023/10/07 15:24:00;;;;;;;10.07;3.15;;;;;;;;;;5094998;28;20101;-71